createdAt,value
2023-07-15T00:01:38.332Z,100882.56
2023-07-15T00:04:12.708Z,100883.06
2023-07-15T00:06:40.525Z,100882.63
2023-07-15T00:09:07.889Z,100874.53
2023-07-15T00:11:38.560Z,100881.50
2023-07-15T00:14:15.796Z,100871.84
2023-07-15T00:16:43.084Z,100871.84
2023-07-15T00:19:10.409Z,100877.91
2023-07-15T00:21:38.068Z,100880.69
2023-07-15T00:24:05.357Z,100878.38
2023-07-15T00:26:33.814Z,100880.19
2023-07-15T00:29:01.400Z,100891.38
2023-07-15T00:31:29.257Z,100891.38
2023-07-15T00:33:56.444Z,100891.56
2023-07-15T00:36:23.936Z,100893.22
2023-07-15T00:38:51.248Z,100896.78
2023-07-15T00:41:22.577Z,100886.56
2023-07-15T00:44:04.071Z,100890.88
2023-07-15T00:46:54.557Z,100885.91
2023-07-15T00:49:27.764Z,100901.19
2023-07-15T00:52:11.343Z,100894.69
2023-07-15T00:54:43.070Z,100902.28
2023-07-15T00:57:12.475Z,100904.75
2023-07-15T00:59:40.875Z,100899.63
2023-07-15T01:02:10.515Z,100907.94
2023-07-15T01:04:37.699Z,100901.28
2023-07-15T01:07:08.455Z,100908.53
2023-07-15T01:09:36.407Z,100912.50
2023-07-15T01:12:04.594Z,100909.34
2023-07-15T01:14:31.831Z,100909.97
2023-07-15T01:16:58.851Z,100910.91
2023-07-15T01:19:26.215Z,100915.91
2023-07-15T01:21:54.620Z,100924.13
2023-07-15T01:24:23.535Z,100921.00
2023-07-15T01:26:57.810Z,100923.03
2023-07-15T01:29:25.330Z,100922.06
2023-07-15T01:31:52.404Z,100921.16
2023-07-15T01:34:20.942Z,100925.78
2023-07-15T01:36:49.345Z,100929.28
2023-07-15T01:39:17.070Z,100930.88
2023-07-15T01:41:45.560Z,100932.03
2023-07-15T01:44:13.561Z,100939.19
2023-07-15T01:46:41.107Z,100944.34
2023-07-15T01:49:08.663Z,100939.47
2023-07-15T01:51:36.704Z,100944.31
2023-07-15T01:54:04.326Z,100942.06
2023-07-15T01:56:31.664Z,100952.63
2023-07-15T01:58:59.128Z,100964.13
2023-07-15T02:01:28.756Z,100963.56
2023-07-15T02:03:56.268Z,100955.59
2023-07-15T02:06:23.681Z,100962.53
2023-07-15T02:08:51.168Z,100965.31
2023-07-15T02:11:18.261Z,100967.09
2023-07-15T02:13:45.473Z,100960.13
2023-07-15T02:16:13.280Z,100974.59
2023-07-15T02:18:40.755Z,100963.72
2023-07-15T02:21:08.259Z,100971.19
2023-07-15T02:23:36.758Z,100966.31
2023-07-15T02:26:03.818Z,100979.56
2023-07-15T02:28:31.278Z,100973.78
2023-07-15T02:30:58.361Z,100979.00
2023-07-15T02:33:25.830Z,100977.91
2023-07-15T02:35:53.198Z,100980.44
2023-07-15T02:38:20.201Z,100986.97
2023-07-15T02:40:49.585Z,100993.47
2023-07-15T02:43:16.749Z,100990.03
2023-07-15T02:45:43.832Z,100999.78
2023-07-15T02:48:11.074Z,100999.56
2023-07-15T02:50:38.200Z,101006.91
2023-07-15T02:53:05.706Z,101009.16
2023-07-15T02:55:33.073Z,101009.50
2023-07-15T02:58:00.255Z,101013.09
2023-07-15T03:00:27.784Z,101016.88
2023-07-15T03:02:54.904Z,101010.22
2023-07-15T03:05:22.482Z,101016.06
2023-07-15T03:07:50.642Z,101014.28
2023-07-15T03:10:20.229Z,101012.50
2023-07-15T03:12:49.453Z,101021.78
2023-07-15T03:15:17.299Z,101022.34
2023-07-15T03:17:45.174Z,101017.34
2023-07-15T03:20:24.727Z,101020.06
2023-07-15T03:22:52.601Z,101028.28
2023-07-15T03:25:22.998Z,101025.31
2023-07-15T03:27:51.495Z,101024.03
2023-07-15T03:30:19.834Z,101040.53
2023-07-15T03:32:50.033Z,101043.50
2023-07-15T03:35:17.809Z,101038.88
2023-07-15T03:37:45.837Z,101040.50
2023-07-15T03:40:14.274Z,101029.94
2023-07-15T03:42:42.823Z,101044.19
2023-07-15T03:45:10.946Z,101045.09
2023-07-15T03:47:39.842Z,101044.53
2023-07-15T03:50:10.701Z,101053.19
2023-07-15T03:52:40.598Z,101059.09
2023-07-15T04:03:33.477Z,101067.63
2023-07-15T04:06:00.876Z,101073.91
2023-07-15T04:08:27.866Z,101086.38
2023-07-15T04:10:55.240Z,101083.72
2023-07-15T04:13:22.277Z,101086.81
2023-07-15T04:15:49.477Z,101085.38
2023-07-15T04:18:18.027Z,101084.91
2023-07-15T04:20:45.156Z,101094.06
2023-07-15T04:23:12.272Z,101084.75
2023-07-15T04:25:40.001Z,101085.25
2023-07-15T04:28:07.019Z,101090.94
2023-07-15T04:30:34.105Z,101091.97
2023-07-15T04:33:01.191Z,101082.09
2023-07-15T04:35:29.269Z,101088.38
2023-07-15T04:37:56.292Z,101086.25
2023-07-15T04:40:23.595Z,101085.13
2023-07-15T04:42:50.576Z,101084.63
2023-07-15T04:45:17.578Z,101083.44
2023-07-15T04:47:44.742Z,101097.63
2023-07-15T04:50:12.093Z,101101.94
2023-07-15T04:52:39.289Z,101103.41
2023-07-15T04:55:06.624Z,101111.91
2023-07-15T04:57:33.822Z,101106.00
2023-07-15T05:00:02.217Z,101111.28
2023-07-15T05:02:32.572Z,101113.91
2023-07-15T05:04:59.679Z,101111.47
2023-07-15T05:07:26.874Z,101117.94
2023-07-15T05:09:53.933Z,101114.44
2023-07-15T05:12:21.176Z,101114.13
2023-07-15T05:17:16.664Z,101130.56
2023-07-15T05:19:44.630Z,101131.06
2023-07-15T05:22:12.043Z,101128.16
2023-07-15T05:24:40.184Z,101130.66
2023-07-15T05:27:07.472Z,101130.22
2023-07-15T05:29:34.654Z,101131.97
2023-07-15T05:32:01.923Z,101130.53
2023-07-15T05:34:29.040Z,101129.06
2023-07-15T05:36:56.198Z,101131.13
2023-07-15T05:39:23.679Z,101137.69
2023-07-15T05:41:51.539Z,101139.47
2023-07-15T05:44:18.641Z,101139.09
2023-07-15T05:46:45.747Z,101143.78
2023-07-15T05:49:12.994Z,101155.75
2023-07-15T05:51:40.151Z,101146.25
2023-07-15T05:54:07.379Z,101152.16
2023-07-15T05:56:34.515Z,101157.09
2023-07-15T05:59:01.480Z,101153.59
2023-07-15T06:01:28.590Z,101157.56
2023-07-15T06:03:55.932Z,101157.44
2023-07-15T06:06:23.384Z,101166.38
2023-07-15T06:08:50.596Z,101161.50
2023-07-15T06:11:18.502Z,101169.75
2023-07-15T06:13:45.570Z,101172.59
2023-07-15T06:16:12.756Z,101174.13
2023-07-15T06:18:40.325Z,101172.66
2023-07-15T06:21:08.811Z,101171.16
2023-07-15T06:23:36.943Z,101168.34
2023-07-15T06:26:04.254Z,101177.47
2023-07-15T06:28:31.480Z,101174.69
2023-07-15T06:31:07.973Z,101183.25
2023-07-15T06:33:36.779Z,101174.56
2023-07-15T06:36:05.121Z,101176.41
2023-07-15T06:38:32.324Z,101177.03
2023-07-15T06:40:59.622Z,101172.69
2023-07-15T06:43:26.578Z,101165.91
2023-07-15T06:45:53.588Z,101176.66
2023-07-15T06:48:20.779Z,101173.44
2023-07-15T06:50:48.039Z,101183.66
2023-07-15T06:53:15.056Z,101167.53
2023-07-15T06:55:42.593Z,101176.38
2023-07-15T06:58:09.694Z,101174.84
2023-07-15T07:00:37.094Z,101165.50
2023-07-15T07:03:04.306Z,101165.28
2023-07-15T07:05:31.636Z,101169.13
2023-07-15T07:07:58.978Z,101172.25
2023-07-15T07:10:26.177Z,101161.22
2023-07-15T07:12:53.250Z,101166.16
2023-07-15T07:15:20.584Z,101165.97
2023-07-15T07:17:47.824Z,101169.03
2023-07-15T07:20:15.149Z,101164.91
2023-07-15T07:22:43.981Z,101170.16
2023-07-15T07:25:11.223Z,101166.28
2023-07-15T07:27:39.477Z,101163.56
2023-07-15T07:30:07.528Z,101155.28
2023-07-15T07:32:34.938Z,101165.78
2023-07-15T07:35:02.247Z,101163.63
2023-07-15T07:37:29.560Z,101161.97
2023-07-15T07:39:56.644Z,101166.38
2023-07-15T07:42:24.121Z,101172.69
2023-07-15T07:44:51.161Z,101173.25
2023-07-15T07:47:18.298Z,101174.09
2023-07-15T07:49:45.288Z,101170.78
2023-07-15T07:52:14.251Z,101163.31
2023-07-15T07:54:41.473Z,101176.84
2023-07-15T07:57:09.548Z,101181.78
2023-07-15T07:59:38.185Z,101180.44
2023-07-15T08:02:05.388Z,101178.19
2023-07-15T08:04:34.185Z,101175.19
2023-07-15T08:07:01.334Z,101174.59
2023-07-15T08:09:31.828Z,101171.19
2023-07-15T08:12:00.212Z,101185.50
2023-07-15T08:14:27.390Z,101183.81
2023-07-15T08:16:54.672Z,101176.13
2023-07-15T08:19:21.855Z,101186.63
2023-07-15T08:21:48.934Z,101184.91
2023-07-15T08:24:16.185Z,101183.78
2023-07-15T08:26:43.413Z,101180.88
2023-07-15T08:29:10.480Z,101178.72
2023-07-15T08:31:38.918Z,101185.34
2023-07-15T08:34:06.017Z,101187.03
2023-07-15T08:36:33.338Z,101184.28
2023-07-15T08:39:00.339Z,101178.19
2023-07-15T08:41:27.970Z,101183.41
2023-07-15T08:43:55.116Z,101179.81
2023-07-15T08:46:29.834Z,101174.88
2023-07-15T08:48:58.937Z,101172.13
2023-07-15T08:51:30.861Z,101172.34
2023-07-15T08:54:02.323Z,101187.41
2023-07-15T08:56:30.984Z,101183.06
2023-07-15T08:58:59.401Z,101179.16
2023-07-15T09:01:26.721Z,101179.41
2023-07-15T09:03:54.007Z,101176.28
2023-07-15T09:06:21.363Z,101176.91
2023-07-15T09:08:52.426Z,101179.66
2023-07-15T09:11:19.920Z,101170.28
2023-07-15T09:13:48.111Z,101179.31
2023-07-15T09:16:16.434Z,101169.75
2023-07-15T09:18:44.533Z,101179.72
2023-07-15T09:21:17.069Z,101177.47
2023-07-15T09:23:46.202Z,101179.38
2023-07-15T09:26:14.811Z,101167.56
2023-07-15T09:28:48.321Z,101168.56
2023-07-15T09:31:24.197Z,101167.94
2023-07-15T09:33:51.423Z,101172.84
2023-07-15T09:36:33.538Z,101176.22
2023-07-15T09:39:19.534Z,101180.44
2023-07-15T09:42:03.577Z,101178.94
2023-07-15T09:44:46.889Z,101177.72
2023-07-15T09:47:14.113Z,101178.47
2023-07-15T09:49:41.357Z,101179.75
2023-07-15T09:52:08.761Z,101169.50
2023-07-15T09:54:37.253Z,101171.72
2023-07-15T09:57:12.252Z,101167.66
2023-07-15T09:59:47.734Z,101177.16
2023-07-15T10:02:43.498Z,101173.09
2023-07-15T10:05:14.994Z,101178.16
2023-07-15T10:07:42.876Z,101171.72
2023-07-15T10:10:10.337Z,101188.19
2023-07-15T10:12:39.437Z,101175.69
2023-07-15T10:15:08.721Z,101169.13
2023-07-15T10:17:39.797Z,101170.69
2023-07-15T10:20:11.774Z,101170.59
2023-07-15T10:22:40.733Z,101170.69
2023-07-15T10:25:17.195Z,101168.47
2023-07-15T10:27:44.641Z,101164.56
2023-07-15T10:30:23.595Z,101175.22
2023-07-15T10:33:23.502Z,101167.00
2023-07-15T10:35:52.861Z,101168.19
2023-07-15T10:38:30.665Z,101174.69
2023-07-15T10:41:03.274Z,101169.41
2023-07-15T10:43:36.408Z,101173.31
2023-07-15T10:46:08.085Z,101173.88
2023-07-15T10:48:36.649Z,101164.09
2023-07-15T10:51:07.096Z,101169.84
2023-07-15T10:53:35.574Z,101159.25
2023-07-15T10:56:10.602Z,101153.50
2023-07-15T10:58:38.397Z,101166.72
2023-07-15T11:01:09.504Z,101161.09
2023-07-15T11:03:38.904Z,101153.94
2023-07-15T11:06:10.222Z,101159.47
2023-07-15T11:08:41.192Z,101151.38
2023-07-15T11:11:11.726Z,101152.28
2023-07-15T11:13:40.773Z,101152.31
2023-07-15T11:16:08.145Z,101161.03
2023-07-15T11:18:35.479Z,101153.28
2023-07-15T11:21:02.852Z,101159.25
2023-07-15T11:23:32.158Z,101143.13
2023-07-15T11:26:09.012Z,101154.34
2023-07-15T11:28:36.230Z,101154.16
2023-07-15T11:31:03.337Z,101152.72
2023-07-15T11:33:30.499Z,101146.66
2023-07-15T11:35:57.734Z,101155.56
2023-07-15T11:38:32.126Z,101153.50
2023-07-15T11:41:01.249Z,101147.69
2023-07-15T11:43:31.566Z,101156.41
2023-07-15T11:46:00.654Z,101147.59
2023-07-15T11:48:32.601Z,101146.25
2023-07-15T11:51:10.052Z,101142.50
2023-07-15T11:53:38.944Z,101146.19
2023-07-15T11:56:09.199Z,101143.84
2023-07-15T11:58:40.753Z,101143.72
2023-07-15T12:01:13.796Z,101144.88
2023-07-15T12:03:41.622Z,101145.28
2023-07-15T12:06:20.184Z,101141.59
2023-07-15T12:09:02.968Z,101144.28
2023-07-15T12:11:34.189Z,101148.41
2023-07-15T12:14:02.732Z,101141.19
2023-07-15T12:16:32.038Z,101141.78
2023-07-15T12:19:00.605Z,101136.22
2023-07-15T12:21:28.669Z,101133.91
2023-07-15T12:23:57.096Z,101138.84
2023-07-15T12:26:24.587Z,101134.78
2023-07-15T12:28:52.111Z,101141.47
2023-07-15T12:31:19.862Z,101144.88
2023-07-15T12:33:47.279Z,101135.50
2023-07-15T12:36:17.635Z,101147.00
2023-07-15T12:38:46.205Z,101144.25
2023-07-15T12:41:14.289Z,101130.25
2023-07-15T12:43:42.513Z,101137.94
2023-07-15T12:46:10.940Z,101137.09
2023-07-15T12:48:40.107Z,101134.53
2023-07-15T12:51:07.348Z,101129.00
2023-07-15T12:53:35.321Z,101133.97
2023-07-15T12:56:02.314Z,101131.38
2023-07-15T12:58:30.363Z,101128.38
2023-07-15T13:00:58.733Z,101131.94
2023-07-15T13:03:26.725Z,101127.28
2023-07-15T13:05:54.006Z,101136.25
2023-07-15T13:08:21.323Z,101123.53
2023-07-15T13:10:49.130Z,101131.94
2023-07-15T13:13:16.228Z,101130.13
2023-07-15T13:15:46.103Z,101127.00
2023-07-15T13:18:14.132Z,101123.28
2023-07-15T13:20:42.355Z,101130.06
2023-07-15T13:23:10.254Z,101123.50
2023-07-15T13:25:39.346Z,101110.03
2023-07-15T13:28:06.507Z,101115.59
2023-07-15T13:30:34.880Z,101116.78
2023-07-15T13:33:02.151Z,101116.91
2023-07-15T13:35:30.134Z,101116.91
2023-07-15T13:37:57.152Z,101109.34
2023-07-15T13:40:24.686Z,101110.41
2023-07-15T13:42:52.540Z,101101.72
2023-07-15T13:45:20.559Z,101103.06
2023-07-15T13:47:53.671Z,101105.50
2023-07-15T13:50:22.436Z,101110.34
2023-07-15T13:52:49.820Z,101099.03
2023-07-15T13:55:18.276Z,101092.06
2023-07-15T13:57:48.009Z,101097.69
2023-07-15T14:00:15.622Z,101094.13
2023-07-15T14:02:44.099Z,101090.50
2023-07-15T14:05:11.713Z,101094.63
2023-07-15T14:07:38.969Z,101097.72
2023-07-15T14:10:07.186Z,101088.22
2023-07-15T14:12:34.938Z,101095.28
2023-07-15T14:15:02.323Z,101089.28
2023-07-15T14:17:29.586Z,101085.91
2023-07-15T14:22:34.175Z,101091.78
2023-07-15T14:25:06.539Z,101079.38
2023-07-15T14:27:34.452Z,101088.41
2023-07-15T14:30:01.614Z,101086.50
2023-07-15T14:32:29.063Z,101088.31
2023-07-15T14:34:56.147Z,101093.44
2023-07-15T14:37:23.149Z,101090.72
2023-07-15T14:39:50.168Z,101091.63
2023-07-15T14:42:17.664Z,101093.22
2023-07-15T14:44:44.726Z,101093.25
2023-07-15T14:47:11.993Z,101098.78
2023-07-15T14:49:39.277Z,101099.47
2023-07-15T14:52:06.736Z,101108.31
2023-07-15T14:54:34.304Z,101097.59
2023-07-15T14:57:02.449Z,101107.31
2023-07-15T14:59:30.151Z,101110.22
2023-07-15T15:01:57.170Z,101105.97
2023-07-15T15:04:25.823Z,101111.81
2023-07-15T15:06:53.327Z,101111.75
2023-07-15T15:09:20.616Z,101120.22
2023-07-15T15:11:47.616Z,101112.09
2023-07-15T15:14:14.903Z,101110.91
2023-07-15T15:16:42.244Z,101118.88
2023-07-15T15:19:09.607Z,101124.47
2023-07-15T15:21:38.432Z,101135.69
2023-07-15T15:24:06.166Z,101125.06
2023-07-15T15:26:33.632Z,101130.78
2023-07-15T15:29:00.975Z,101118.69
2023-07-15T15:31:28.250Z,101125.38
2023-07-15T15:33:55.472Z,101135.03
2023-07-15T15:36:22.644Z,101128.78
2023-07-15T15:38:49.717Z,101135.41
2023-07-15T15:41:16.942Z,101132.41
2023-07-15T15:43:44.744Z,101134.94
2023-07-15T15:46:12.392Z,101132.19
2023-07-15T15:48:42.310Z,101140.75
2023-07-15T15:51:10.017Z,101138.28
2023-07-15T15:53:37.454Z,101145.00
2023-07-15T15:56:05.315Z,101145.94
2023-07-15T15:58:32.533Z,101148.97
2023-07-15T16:00:59.722Z,101144.84
2023-07-15T16:03:30.344Z,101147.03
2023-07-15T16:05:58.588Z,101137.97
2023-07-15T16:08:26.190Z,101144.91
2023-07-15T16:10:53.334Z,101144.34
2023-07-15T16:13:20.689Z,101153.50
2023-07-15T16:15:49.233Z,101156.81
2023-07-15T16:18:16.251Z,101150.47
2023-07-15T16:20:44.005Z,101155.72
2023-07-15T16:23:11.895Z,101161.84
2023-07-15T16:25:41.174Z,101162.34
2023-07-15T16:28:08.867Z,101154.63
2023-07-15T16:30:37.128Z,101164.06
2023-07-15T16:33:05.299Z,101166.81
2023-07-15T16:35:32.637Z,101164.06
2023-07-15T16:38:16.350Z,101174.03
2023-07-15T16:40:43.987Z,101172.66
2023-07-15T16:43:11.063Z,101174.06
2023-07-15T16:45:38.759Z,101172.94
2023-07-15T16:48:06.249Z,101178.50
2023-07-15T16:50:33.400Z,101176.53
2023-07-15T16:53:00.399Z,101170.19
2023-07-15T16:55:27.652Z,101178.50
2023-07-15T16:57:54.629Z,101182.34
2023-07-15T17:00:22.296Z,101181.28
2023-07-15T17:02:49.505Z,101181.28
2023-07-15T17:05:16.825Z,101186.75
2023-07-15T17:07:43.913Z,101189.00
2023-07-15T17:10:11.136Z,101185.13
2023-07-15T17:12:38.640Z,101190.66
2023-07-15T17:15:06.321Z,101191.75
2023-07-15T17:17:33.581Z,101194.50
2023-07-15T17:20:00.815Z,101190.91
2023-07-15T17:22:28.022Z,101204.16
2023-07-15T17:24:57.655Z,101198.38
2023-07-15T17:27:25.072Z,101197.22
2023-07-15T17:29:52.066Z,101201.63
2023-07-15T17:32:19.516Z,101208.22
2023-07-15T17:34:47.135Z,101205.44
2023-07-15T17:37:14.295Z,101212.38
2023-07-15T17:39:41.431Z,101208.75
2023-07-15T17:42:08.618Z,101217.00
2023-07-15T17:44:36.368Z,101215.38
2023-07-15T17:47:03.993Z,101218.09
2023-07-15T17:49:31.950Z,101221.38
2023-07-15T17:51:59.072Z,101226.84
2023-07-15T17:54:28.056Z,101233.19
2023-07-15T17:56:56.076Z,101229.56
2023-07-15T17:59:23.550Z,101229.31
2023-07-15T18:01:50.862Z,101244.69
2023-07-15T18:04:18.141Z,101237.22
2023-07-15T18:06:45.456Z,101232.50
2023-07-15T18:09:13.652Z,101240.19
2023-07-15T18:11:41.606Z,101242.06
2023-07-15T18:14:08.938Z,101247.00
2023-07-15T18:16:36.578Z,101247.56
2023-07-15T18:19:05.202Z,101245.41
2023-07-15T18:21:32.681Z,101250.66
2023-07-15T18:23:59.760Z,101250.91
2023-07-15T18:26:26.827Z,101258.06
2023-07-15T18:28:55.384Z,101259.66
2023-07-15T18:31:22.986Z,101255.53
2023-07-15T18:33:50.670Z,101258.81
2023-07-15T18:36:17.732Z,101260.13
2023-07-15T18:38:44.955Z,101266.19
2023-07-15T18:41:13.285Z,101273.31
2023-07-15T18:43:41.987Z,101274.97
2023-07-15T18:46:09.943Z,101279.00
2023-07-15T18:48:37.523Z,101272.41
2023-07-15T18:51:05.303Z,101276.50
2023-07-15T18:53:33.160Z,101276.81
2023-07-15T18:56:00.327Z,101275.25
2023-07-15T18:58:28.471Z,101271.09
2023-07-15T19:00:55.521Z,101273.34
2023-07-15T19:03:22.806Z,101279.63
2023-07-15T19:05:51.411Z,101285.06
2023-07-15T19:08:19.680Z,101279.94
2023-07-15T19:10:46.837Z,101279.66
2023-07-15T19:13:15.430Z,101272.13
2023-07-15T19:15:42.795Z,101269.97
2023-07-15T19:18:10.251Z,101266.84
2023-07-15T19:20:38.273Z,101274.06
2023-07-15T19:23:05.440Z,101278.34
2023-07-15T19:25:33.509Z,101280.66
2023-07-15T19:28:00.959Z,101274.59
2023-07-15T19:30:28.033Z,101284.16
2023-07-15T19:32:55.946Z,101285.78
2023-07-15T19:35:23.506Z,101280.47
2023-07-15T19:37:50.598Z,101291.13
2023-07-15T19:40:17.764Z,101286.19
2023-07-15T19:42:45.048Z,101287.84
2023-07-15T19:45:12.190Z,101285.59
2023-07-15T19:47:40.435Z,101292.59
2023-07-15T19:50:08.277Z,101298.28
2023-07-15T19:52:35.690Z,101300.84
2023-07-15T19:55:02.860Z,101307.59
2023-07-15T19:57:30.290Z,101304.97
2023-07-15T19:59:58.262Z,101308.78
2023-07-15T20:02:25.648Z,101307.38
2023-07-15T20:04:52.930Z,101312.88
2023-07-15T20:07:20.370Z,101313.94
2023-07-15T20:09:47.748Z,101310.13
2023-07-15T20:12:14.886Z,101302.47
2023-07-15T20:14:42.556Z,101307.13
2023-07-15T20:17:11.941Z,101304.03
2023-07-15T20:19:38.976Z,101304.53
2023-07-15T20:22:06.453Z,101298.47
2023-07-15T20:24:33.455Z,101295.09
2023-07-15T20:27:00.612Z,101297.59
2023-07-15T20:29:27.740Z,101305.38
2023-07-15T20:31:55.145Z,101298.91
2023-07-15T20:34:22.222Z,101302.97
2023-07-15T20:36:49.678Z,101297.16
2023-07-15T20:39:17.355Z,101302.38
2023-07-15T20:41:44.770Z,101289.41
2023-07-15T20:44:12.580Z,101297.44
2023-07-15T20:46:40.309Z,101299.09
2023-07-15T20:49:07.510Z,101299.03
2023-07-15T20:51:35.100Z,101298.66
2023-07-15T20:54:03.706Z,101298.09
2023-07-15T20:56:30.961Z,101300.09
2023-07-15T20:58:58.233Z,101296.38
2023-07-15T21:01:25.528Z,101296.16
2023-07-15T21:03:53.917Z,101285.31
2023-07-15T21:06:21.060Z,101287.13
2023-07-15T21:08:48.761Z,101290.16
2023-07-15T21:11:19.180Z,101294.94
2023-07-15T21:13:47.757Z,101293.16
2023-07-15T21:16:15.248Z,101290.66
2023-07-15T21:18:43.156Z,101297.28
2023-07-15T21:21:10.997Z,101284.47
2023-07-15T21:23:38.658Z,101289.25
2023-07-15T21:26:07.671Z,101297.94
2023-07-15T21:28:36.741Z,101295.56
2023-07-15T21:31:04.741Z,101293.34
2023-07-15T21:33:32.697Z,101290.22
2023-07-15T21:35:59.989Z,101299.25
2023-07-15T21:38:27.364Z,101292.47
2023-07-15T21:40:54.489Z,101291.53
2023-07-15T21:43:22.227Z,101300.00
2023-07-15T21:45:49.316Z,101289.53
2023-07-15T21:48:17.230Z,101290.69
2023-07-15T21:50:45.913Z,101292.16
2023-07-15T21:53:13.195Z,101285.34
2023-07-15T21:55:41.271Z,101296.28
2023-07-15T21:58:09.732Z,101283.53
2023-07-15T22:00:39.593Z,101289.84
2023-07-15T22:03:07.195Z,101287.13
2023-07-15T22:05:34.904Z,101292.81
2023-07-15T22:08:01.909Z,101289.03
2023-07-15T22:10:29.527Z,101283.53
2023-07-15T22:12:56.679Z,101287.13
2023-07-15T22:15:24.183Z,101276.66
2023-07-15T22:17:51.498Z,101276.78
2023-07-15T22:20:18.775Z,101272.63
2023-07-15T22:22:46.023Z,101274.47
2023-07-15T22:25:13.374Z,101270.56
2023-07-15T22:27:40.366Z,101271.84
2023-07-15T22:30:09.754Z,101280.03
2023-07-15T22:32:38.133Z,101284.06
2023-07-15T22:35:05.604Z,101277.69
2023-07-15T22:37:32.686Z,101282.38
2023-07-15T22:39:59.814Z,101284.53
2023-07-15T22:42:26.799Z,101278.16
2023-07-15T22:44:53.968Z,101279.19
2023-07-15T22:47:21.715Z,101290.00
2023-07-15T22:49:48.884Z,101285.91
2023-07-15T22:52:16.068Z,101285.16
2023-07-15T22:54:45.010Z,101287.88
2023-07-15T22:57:12.024Z,101281.94
2023-07-15T22:59:39.071Z,101290.53
2023-07-15T23:02:06.376Z,101280.44
2023-07-15T23:04:33.537Z,101282.97
2023-07-15T23:07:03.220Z,101279.66
2023-07-15T23:09:30.408Z,101277.34
2023-07-15T23:11:57.659Z,101279.84
2023-07-15T23:14:24.997Z,101275.44
2023-07-15T23:16:52.814Z,101271.06
2023-07-15T23:19:19.830Z,101272.19
2023-07-15T23:21:46.940Z,101272.91
2023-07-15T23:24:14.175Z,101269.59
2023-07-15T23:26:44.273Z,101275.81
2023-07-15T23:29:11.704Z,101279.53
2023-07-15T23:31:39.344Z,101279.25
2023-07-15T23:34:25.642Z,101271.19
2023-07-15T23:36:54.691Z,101272.66
2023-07-15T23:39:22.184Z,101266.72
2023-07-15T23:41:49.305Z,101267.66
2023-07-15T23:44:16.340Z,101267.31
2023-07-15T23:46:45.852Z,101266.50
2023-07-15T23:49:13.156Z,101266.75
2023-07-15T23:51:40.893Z,101273.69
2023-07-15T23:54:08.175Z,101272.00
2023-07-15T23:56:35.968Z,101277.31
2023-07-15T23:59:03.372Z,101269.72
